x

N01 - Northeast Channel (44024) Wave Buoy

11:04pm - Tue 21st Feb 2017 All times are AST. -4 hours from GMT.

  • Sig Wave height 5.6ft
  • Peak Period 8s
  • Wind
    4mph, 7mph gusts
  • Sea Temp 37°f
  • Air Temp 32°f
  • Sea Pressure 1021.5mb
  • N01 - Northeast Channel
  • N01 - Northeast Channel

More Historic Weather Station data

Upgrade to MSW Pro to gain access to the past 30 days of data for over 8000 Wavebouys and Weather Stations around the globe.

Join Pro

Comparision Forecast

View Surf forecast
   
Tue 02/21 11:04pm 5.5ft 8s 4 7 mph 1021.5mb 37f 32f
10:04pm 5.5ft 8s 4
mph
1022.2mb 38f 32f
9:04pm 4.5ft 8s 4 7 mph 1022.7mb 38f 31f
8:04pm 5ft 8s 7 9 mph 1022.9mb 38f 31f
7:04pm 4.5ft 8s 7 9 mph 1023.1mb 38f 31f
6:04pm 4.5ft 8s 9 11 mph 1023.4mb 38f 31f
5:04pm 5ft 8s 11 16 mph 1023.3mb 37f 31f
4:04pm 5ft 8s 13 18 mph 1023.6mb 37f 30f
3:04pm 7ft 8s 16 18 mph 1023.6mb 37f 30f
2:04pm 6ft 6s 16 20 mph 1023.9mb 37f 30f
1:04pm 6.5ft 8s 16 18 mph 1024.3mb 37f 30f
12:04pm 6ft 8s 18 20 mph 1024.5mb 37f 30f
11:04am 6ft 6s 18 22 mph 1025.4mb 37f 31f
10:04am 6ft 6s 20 22 mph 1025.5mb 37f 31f
9:04am 7ft 6s 20 25 mph 1025.1mb 38f 31f
8:04am 7ft 8s 18 22 mph 1024.3mb 38f 32f
5:04am 7.5ft 6s 20 25 mph 1023.2mb 37f 33f
4:04am 7ft 6s 20 25 mph 1022.6mb 38f 33f
3:04am 7.5ft 6s 22 27 mph 1023.1mb 38f 34f
1:04am 6ft 6s 20 22 mph 1021.8mb 38f 35f
12:04am  -   -  22 25 mph 1021.2mb - 36f
Mon 02/20 11:04pm 6ft 6s 22 27 mph 1021.3mb 38f 35f
10:04pm  -   -  25 29 mph 1021mb - 36f
9:04pm  -   -  22 29 mph 1020.4mb - 36f
8:04pm 8ft 6s 25 31 mph 1019.7mb 37f 36f
7:04pm 8ft 6s 27 34 mph 1018.8mb 37f 36f
6:04pm 7ft 6s 25 31 mph 1017.7mb 37f 36f
5:04pm 6.5ft 8s 22 27 mph 1016.6mb 37f 36f
4:04pm 7ft 8s 22 27 mph 1015.6mb 38f 35f
3:04pm 8ft 6s 22 27 mph 1014.7mb 38f 35f
2:04pm 7.5ft 8s 22 29 mph 1014.4mb 38f 35f
1:04pm 7ft 8s 25 29 mph 1014.4mb 38f 35f
12:04pm 7.5ft 6s 22 29 mph 1014.7mb 38f 36f
11:04am 6ft 5s 27 31 mph 1014.4mb 39f 36f
10:04am 6ft 5s 25 29 mph 1014.2mb 39f 36f
9:04am 3.5ft 4s 22 27 mph 1013.5mb 39f 37f
8:04am 5.5ft 8s 18 25 mph 1012.1mb 39f 38f
7:04am 5ft 8s 18 20 mph 1011.3mb 39f 38f
6:04am 4.5ft 8s 16 20 mph 1010.3mb 38f 39f
5:04am 5ft 8s 13 18 mph 1009.4mb 38f 40f
4:04am 5.5ft 8s 11 13 mph 1008.5mb 38f 40f
3:04am 5.5ft 8s 9 11 mph 1008.6mb 38f 39f
2:04am 6ft 8s 9 11 mph 1007.9mb 38f 40f
1:04am 6ft 8s 16 18 mph 1007.4mb 38f 40f
12:04am 5ft 8s 16 18 mph 1007.3mb 37f 42f
Sun 02/19 11:04pm 6ft 8s 13 16 mph 1006.9mb 37f 41f
10:04pm 5.5ft 8s 13 16 mph 1006.4mb 38f 41f
9:04pm 6ft 8s 11 13 mph 1005.8mb 38f 41f
8:04pm 5.5ft 6s 11
mph
1005.2mb 38f 41f
7:04pm 5ft 6s 9
mph
1005.2mb 38f 40f
6:04pm 4.5ft 6s 9
mph
1004.7mb 38f 41f
5:04pm 4.5ft 6s 9
mph
1003.8mb 38f 42f
4:04pm 5.5ft 6s 11
mph
1003.4mb 38f 42f
3:04pm 5ft 8s 11
mph
1003.3mb 38f 41f
2:04pm 5ft 8s 7 9 mph 1002.8mb 38f 42f
1:04pm 5.5ft 8s 9
mph
1002.3mb 38f 42f
12:04pm 6ft 8s 9 11 mph 1003mb 38f 42f
11:04am 5.5ft 8s 11
mph
1003mb 38f 42f
10:04am 7ft 8s 9 11 mph 1002.7mb 38f 42f
9:04am 7ft 8s 11
mph
1002.3mb 38f 42f
8:04am 8ft 8s 11 13 mph 1001.9mb 38f 42f
7:04am 7.5ft 8s 13 16 mph 1000.9mb 38f 42f
6:04am 7.5ft 8s 13 16 mph 1000.1mb 38f 43f
5:04am 9ft 8s 16 18 mph 999.3mb 38f 43f
4:04am 8ft 8s 20 22 mph 998.8mb 38f 44f
3:04am 10ft 8s 20 25 mph 998.4mb 38f 44f
2:04am 9ft 8s 22 25 mph 998.4mb 38f 45f
1:04am 10ft 8s 22 25 mph 998.9mb 38f 45f
12:04am 9ft 6s 20 25 mph 999.6mb 38f 45f
Sat 02/18 11:04pm 7.5ft 6s 25 29 mph 1000.1mb 38f 45f
10:04pm 8ft 6s 27 31 mph 1000.3mb 38f 44f
9:04pm 7ft 6s 22 29 mph 1002.5mb 38f 43f
8:04pm 5.5ft 6s 20 25 mph 1003.4mb 38f 42f
7:04pm 6ft 5s 20 22 mph 1004.2mb 38f 42f
6:04pm 6ft 6s 20 25 mph 1004.9mb 38f 41f
5:04pm 5ft 6s 22 27 mph 1005.4mb 38f 41f
4:04pm 5.5ft 8s 16 20 mph 1005.4mb 37f 40f
3:04pm 5ft 8s 13 18 mph 1006.7mb 38f 40f
2:04pm 5.5ft 8s 9 11 mph 1006.7mb 38f 40f
1:04pm 6ft 8s 11 13 mph 1007.7mb 38f 39f
12:04pm 6ft 6s 11 16 mph 1008mb 38f 38f
11:04am 7.5ft 8s 13 18 mph 1008.6mb 38f 38f
10:04am 8ft 8s 13 18 mph 1009.2mb 38f 37f
9:04am 8.5ft 8s 13 16 mph 1008.5mb 38f 37f
8:04am 8ft 8s 16 20 mph 1008.3mb 37f 36f
7:04am 10ft 8s 16 20 mph 1007.6mb 37f 36f
6:04am 10.5ft 8s 16 20 mph 1007mb 37f 36f
5:04am 8.5ft 8s 18 25 mph 1006.4mb 37f 36f